Time;durP1;ratioP1;P1;durP2;ratioP2;P2;SDS_P1;SDS_P2;PMS_P1;PMS_P2;Temp;Humidity;BMP_temperature;BMP_pressure;BME280_temperature;BME280_humidity;BME280_pressure;Samples;Min_cycle;Max_cycle;Signal;HPM_P1;HPM_P2
2022/10/12 00:01:42;;;;;;;31.93;14.03;;;;;;;2.13;83.34;99891.46;2225266;80;20939;-80
2022/10/12 00:04:43;;;;;;;29.43;13.37;;;;;;;2.09;83.45;99886.92;2224947;80;21314;-81
2022/10/12 00:07:43;;;;;;;23.07;13.27;;;;;;;2.10;83.25;99886.13;2224960;80;20900;-81
2022/10/12 00:10:44;;;;;;;25.47;13.60;;;;;;;2.06;83.17;99886.33;2224656;80;20900;-81
2022/10/12 00:13:44;;;;;;;22.63;13.87;;;;;;;2.02;83.24;99885.65;2224613;80;20975;-81
2022/10/12 00:16:44;;;;;;;20.37;12.67;;;;;;;2.04;83.43;99888.32;2224786;80;21318;-81
2022/10/12 00:19:45;;;;;;;27.70;13.30;;;;;;;2.04;83.53;99887.92;2224789;80;20876;-81
2022/10/12 00:22:45;;;;;;;29.93;13.37;;;;;;;2.04;83.26;99890.50;2224205;80;20947;-81
2022/10/12 00:25:46;;;;;;;24.87;13.43;;;;;;;2.01;83.12;99886.84;2223476;80;20994;-82
2022/10/12 00:28:46;;;;;;;19.57;12.47;;;;;;;1.95;82.99;99888.64;2224204;80;20955;-82
2022/10/12 00:31:47;;;;;;;26.20;13.03;;;;;;;2.00;83.21;99894.97;2224173;80;20959;-83
2022/10/12 00:34:47;;;;;;;30.67;12.10;;;;;;;1.94;83.03;99894.98;2225419;80;20912;-82
2022/10/12 00:37:47;;;;;;;215.00;26.20;;;;;;;1.93;83.13;99894.48;2225356;80;20920;-83
2022/10/12 00:40:48;;;;;;;48.87;14.73;;;;;;;1.89;83.16;99891.72;2224768;80;20942;-81
2022/10/12 00:43:48;;;;;;;33.80;13.00;;;;;;;1.90;83.28;99896.08;2224905;79;20971;-82
2022/10/12 00:46:49;;;;;;;28.23;12.20;;;;;;;1.92;83.19;99894.89;2225953;80;20946;-83
2022/10/12 00:49:49;;;;;;;32.63;12.30;;;;;;;1.90;82.84;99898.66;2226015;80;20943;-83
2022/10/12 00:52:49;;;;;;;24.70;12.60;;;;;;;1.84;82.85;99896.98;2225232;80;20955;-82
2022/10/12 00:55:50;;;;;;;27.10;12.23;;;;;;;1.82;82.79;99892.14;2224977;80;20938;-82
2022/10/12 00:58:50;;;;;;;50.47;12.97;;;;;;;1.78;82.76;99897.89;2224711;80;21374;-83
2022/10/12 01:01:51;;;;;;;17.40;11.83;;;;;;;1.75;82.68;99898.98;2224421;80;20983;-82
2022/10/12 01:04:51;;;;;;;16.00;11.67;;;;;;;1.70;82.65;99898.16;2224841;80;20986;-83
2022/10/12 01:07:51;;;;;;;21.03;11.10;;;;;;;1.66;82.52;99896.19;2224957;80;20969;-83
2022/10/12 01:10:52;;;;;;;92.47;15.57;;;;;;;1.63;82.61;99899.86;2224713;80;20986;-82
2022/10/12 01:13:52;;;;;;;25.87;11.97;;;;;;;1.61;82.78;99903.62;2225417;80;21029;-83
2022/10/12 01:16:53;;;;;;;22.93;11.90;;;;;;;1.59;82.92;99904.80;2225653;80;20883;-83
2022/10/12 01:19:53;;;;;;;19.10;11.37;;;;;;;1.59;82.97;99897.48;2224739;80;21329;-83
2022/10/12 01:22:53;;;;;;;23.40;11.63;;;;;;;1.58;82.97;99903.42;2224742;80;20939;-83
2022/10/12 01:25:54;;;;;;;24.13;12.17;;;;;;;1.58;83.08;99903.03;2226045;80;20924;-84
2022/10/12 01:28:54;;;;;;;24.40;11.80;;;;;;;1.57;83.17;99901.25;2226324;80;20892;-84
2022/10/12 01:31:55;;;;;;;22.60;12.33;;;;;;;1.54;82.81;99899.77;2226037;80;20907;-84
2022/10/12 01:34:55;;;;;;;27.40;12.50;;;;;;;1.50;82.79;99905.91;2225641;80;21310;-83
2022/10/12 01:37:56;;;;;;;22.33;12.70;;;;;;;1.47;82.93;99902.73;2225729;80;20930;-83
2022/10/12 01:40:56;;;;;;;22.17;11.93;;;;;;;1.48;82.98;99906.20;2225342;80;20932;-84
2022/10/12 01:43:56;;;;;;;20.63;12.03;;;;;;;1.46;82.88;99907.78;2224996;79;20947;-82
2022/10/12 01:46:57;;;;;;;28.40;12.13;;;;;;;1.44;82.94;99908.08;2233093;80;20950;-82
2022/10/12 01:49:57;;;;;;;27.53;11.87;;;;;;;1.44;83.07;99909.37;2232019;80;21365;-82
2022/10/12 01:52:58;;;;;;;25.00;12.37;;;;;;;1.42;82.92;99907.09;2233204;80;20934;-81
2022/10/12 01:55:58;;;;;;;21.30;11.87;;;;;;;1.40;82.79;99912.53;2232417;80;20958;-81
2022/10/12 01:58:58;;;;;;;19.70;10.03;;;;;;;1.36;82.89;99912.73;2232651;80;21016;-81
2022/10/12 02:01:59;;;;;;;17.40;10.60;;;;;;;1.34;82.93;99913.42;2232606;80;21358;-82
2022/10/12 02:04:59;;;;;;;21.63;11.40;;;;;;;1.32;82.89;99915.90;2232839;80;21298;-82
2022/10/12 02:08:00;;;;;;;50.67;12.30;;;;;;;1.30;82.77;99912.73;2233115;80;20911;-85
2022/10/12 02:11:03;;;;;;;26.60;11.97;;;;;;;1.27;82.69;99909.17;2191469;80;21037;-83
2022/10/12 02:14:04;;;;;;;75.40;14.13;;;;;;;1.27;82.86;99911.74;2233972;80;20970;-83
2022/10/12 02:17:04;;;;;;;21.03;12.00;;;;;;;1.25;82.95;99915.89;2234561;80;20961;-83
2022/10/12 02:20:04;;;;;;;23.30;12.17;;;;;;;1.24;83.07;99916.69;2234324;80;20950;-83
2022/10/12 02:23:05;;;;;;;24.93;13.13;;;;;;;1.21;83.07;99912.63;2234148;80;21294;-83
2022/10/12 02:26:06;;;;;;;18.20;12.30;;;;;;;1.20;83.16;99909.56;2233542;80;20931;-82
2022/10/12 02:29:06;;;;;;;24.23;12.13;;;;;;;1.18;83.05;99908.56;2233627;80;20926;-83
2022/10/12 02:32:06;;;;;;;22.47;13.03;;;;;;;1.17;82.97;99909.36;2233750;80;20922;-83
2022/10/12 02:35:06;;;;;;;29.63;13.80;;;;;;;1.17;82.92;99899.47;2234548;80;20922;-83
2022/10/12 02:38:07;;;;;;;25.57;12.97;;;;;;;1.16;82.97;99906.69;2234189;80;21317;-82
2022/10/12 02:41:07;;;;;;;27.63;12.97;;;;;;;1.12;82.91;99904.70;2233234;80;21026;-83
2022/10/12 02:44:08;;;;;;;30.30;13.23;;;;;;;1.10;82.85;99912.32;2233448;80;21021;-83
2022/10/12 02:47:08;;;;;;;23.47;13.23;;;;;;;1.10;82.85;99912.32;2243285;78;21026;-82
2022/10/12 02:50:08;;;;;;;23.43;12.47;;;;;;;1.09;82.96;99915.68;2243197;79;20914;-83
2022/10/12 02:53:09;;;;;;;21.70;12.80;;;;;;;1.07;82.84;99917.66;2243914;79;20914;-82
2022/10/12 02:56:09;;;;;;;65.03;16.70;;;;;;;1.03;82.86;99920.42;2243091;79;20927;-83
2022/10/12 02:59:10;;;;;;;20.97;13.43;;;;;;;1.02;83.07;99917.75;2244928;79;20895;-83
2022/10/12 03:02:10;;;;;;;22.50;13.27;;;;;;;1.04;83.07;99927.73;2243921;79;20983;-82
2022/10/12 03:05:11;;;;;;;24.50;12.73;;;;;;;1.02;82.72;99919.92;2243474;79;20942;-83
2022/10/12 03:08:11;;;;;;;23.37;12.60;;;;;;;0.99;82.74;99923.97;2243536;79;20955;-82
2022/10/12 03:11:11;;;;;;;23.43;13.23;;;;;;;0.95;82.71;99920.31;2243547;79;20961;-83
2022/10/12 03:14:12;;;;;;;75.47;16.43;;;;;;;0.92;82.83;99921.39;2244160;79;21005;-84
2022/10/12 03:17:14;;;;;;;55.97;15.87;;;;;;;0.92;83.17;99916.25;2243970;79;20895;-83
2022/10/12 03:20:14;;;;;;;23.67;13.33;;;;;;;0.92;83.29;99915.85;2244723;79;20957;-84
2022/10/12 03:23:15;;;;;;;28.80;13.10;;;;;;;0.94;83.20;99915.95;2244408;79;20911;-83
2022/10/12 03:26:15;;;;;;;25.63;12.93;;;;;;;0.90;83.12;99912.29;2244258;79;20978;-84
2022/10/12 03:29:16;;;;;;;26.97;13.07;;;;;;;0.88;82.98;99918.12;2244822;79;20957;-85
2022/10/12 03:32:16;;;;;;;23.77;12.77;;;;;;;0.85;83.07;99913.62;2244654;79;20986;-84
2022/10/12 03:35:16;;;;;;;23.60;13.10;;;;;;;0.86;83.23;99914.52;2244192;79;20971;-82
2022/10/12 03:38:17;;;;;;;26.30;13.50;;;;;;;0.87;83.17;99920.19;2243788;79;20926;-81
2022/10/12 03:41:17;;;;;;;20.10;12.53;;;;;;;0.86;83.29;99917.09;2242921;79;20987;-84
2022/10/12 03:44:17;;;;;;;27.83;13.17;;;;;;;0.84;83.18;99918.67;2243688;79;20981;-83
2022/10/12 03:47:18;;;;;;;23.27;12.33;;;;;;;0.82;83.14;99917.67;2232494;78;20993;-82
2022/10/12 03:50:18;;;;;;;23.33;11.70;;;;;;;0.82;83.17;99917.67;2232055;80;20997;-81
2022/10/12 03:53:19;;;;;;;26.17;13.17;;;;;;;0.78;83.29;99911.83;2231089;80;20981;-81
2022/10/12 03:56:19;;;;;;;17.93;12.20;;;;;;;0.78;83.43;99914.41;2233012;80;21016;-82
2022/10/12 03:59:19;;;;;;;23.27;12.03;;;;;;;0.75;83.32;99916.77;2233715;80;20965;-81
2022/10/12 04:02:20;;;;;;;24.27;13.30;;;;;;;0.75;83.36;99915.48;2233416;80;20966;-81
2022/10/12 04:05:20;;;;;;;30.90;12.33;;;;;;;0.77;83.52;99916.47;2233477;80;20974;-82
2022/10/12 04:08:21;;;;;;;21.40;12.63;;;;;;;0.78;83.49;99915.69;2232690;80;20950;-82
2022/10/12 04:11:21;;;;;;;18.53;11.97;;;;;;;0.77;83.28;99924.19;2232270;80;20982;-83
2022/10/12 04:14:21;;;;;;;19.93;12.67;;;;;;;0.77;83.13;99925.47;2232750;80;21084;-82
2022/10/12 04:17:22;;;;;;;22.13;13.37;;;;;;;0.75;83.14;99930.90;2233129;80;20934;-82
2022/10/12 04:20:22;;;;;;;26.20;14.03;;;;;;;0.75;83.23;99925.77;2233160;80;20966;-82
2022/10/12 04:23:23;;;;;;;26.47;12.83;;;;;;;0.79;83.49;99929.03;2233109;80;21349;-82
2022/10/12 04:26:23;;;;;;;25.07;12.83;;;;;;;0.83;83.29;99932.30;2231681;80;20938;-81
2022/10/12 04:29:24;;;;;;;20.93;12.93;;;;;;;0.77;82.93;99930.61;2231542;80;21001;-81
2022/10/12 04:32:24;;;;;;;24.40;14.30;;;;;;;0.77;82.93;99930.61;2230596;80;20985;-82
2022/10/12 04:35:24;;;;;;;24.70;13.83;;;;;;;0.73;82.90;99933.37;2231312;80;21324;-81
2022/10/12 04:38:25;;;;;;;23.97;12.83;;;;;;;0.70;82.90;99931.87;2231702;80;21017;-82
2022/10/12 04:41:25;;;;;;;22.57;12.87;;;;;;;0.68;82.92;99937.70;2231980;80;21068;-80
2022/10/12 04:44:26;;;;;;;20.40;12.53;;;;;;;0.64;82.78;99934.03;2230378;80;21279;-81
2022/10/12 04:47:26;;;;;;;192.97;23.27;;;;;;;0.62;82.94;99933.92;2261799;78;21023;-82
2022/10/12 04:50:26;;;;;;;104.20;18.07;;;;;;;0.62;83.01;99931.36;2264802;79;20896;-81
2022/10/12 04:53:27;;;;;;;57.27;15.07;;;;;;;0.59;82.81;99935.00;2265809;79;20900;-81
2022/10/12 04:56:27;;;;;;;120.07;18.07;;;;;;;0.55;82.72;99937.26;2265223;79;20999;-81
2022/10/12 04:59:28;;;;;;;41.97;14.20;;;;;;;0.80;84.21;99934.28;2265621;79;20924;-80
2022/10/12 05:02:28;;;;;;;33.03;14.90;;;;;;;0.82;82.82;99935.27;2265819;78;21039;-80
2022/10/12 05:05:29;;;;;;;32.87;15.43;;;;;;;0.80;82.82;99935.95;2264891;79;21280;-82
2022/10/12 05:08:29;;;;;;;27.43;13.70;;;;;;;0.78;82.71;99936.25;2265228;79;20975;-80
2022/10/12 05:11:29;;;;;;;86.27;17.13;;;;;;;0.77;82.64;99944.35;2264322;79;20960;-81
2022/10/12 05:14:30;;;;;;;29.20;13.13;;;;;;;0.79;82.92;99947.02;2263823;79;20987;-79
2022/10/12 05:17:30;;;;;;;42.87;14.10;;;;;;;0.82;82.96;99942.09;2262892;79;21340;-80
2022/10/12 05:20:31;;;;;;;24.57;13.90;;;;;;;0.87;83.12;99945.89;2264807;79;21315;-80
2022/10/12 05:23:31;;;;;;;27.33;12.93;;;;;;;0.86;82.65;99948.83;2264785;78;20892;-81
2022/10/12 05:26:31;;;;;;;74.37;14.93;;;;;;;0.88;82.59;99951.53;2265317;78;20988;-81
2022/10/12 05:29:32;;;;;;;32.47;13.20;;;;;;;0.94;82.89;99953.23;2265920;78;21366;-81
2022/10/12 05:32:32;;;;;;;20.73;12.23;;;;;;;1.01;82.88;99952.85;2264926;78;20931;-81
2022/10/12 05:35:33;;;;;;;25.33;11.37;;;;;;;1.05;82.73;99958.70;2262858;79;21321;-81
2022/10/12 05:38:33;;;;;;;33.87;12.50;;;;;;;1.10;82.71;99953.47;2263227;78;20983;-81
2022/10/12 05:41:33;;;;;;;23.77;11.97;;;;;;;1.17;82.62;99956.05;2262878;79;21015;-83
2022/10/12 05:44:34;;;;;;;25.30;13.47;;;;;;;1.24;82.64;99951.80;2262787;79;20956;-82
2022/10/12 05:47:34;;;;;;;20.13;11.40;;;;;;;1.30;82.75;99952.60;2226874;79;21054;-81
2022/10/12 05:50:35;;;;;;;20.73;11.80;;;;;;;1.41;82.78;99951.62;2222103;80;21042;-82
2022/10/12 05:53:36;;;;;;;239.93;22.77;;;;;;;1.48;82.79;99950.84;2221841;80;20888;-79
2022/10/12 05:56:35;;;;;;;36.00;13.17;;;;;;;1.63;83.15;99956.08;2220422;80;21316;-81
2022/10/12 05:59:36;;;;;;;22.50;12.93;;;;;;;1.75;82.97;99958.58;2220484;80;20963;-80
2022/10/12 06:02:36;;;;;;;30.57;12.70;;;;;;;1.82;82.79;99961.65;2220979;80;20998;-79
2022/10/12 06:05:37;;;;;;;23.50;11.83;;;;;;;1.88;82.77;99963.33;2221169;79;20943;-80
2022/10/12 06:08:37;;;;;;;21.30;11.10;;;;;;;1.94;82.87;99956.78;2221367;80;20919;-80
2022/10/12 06:11:38;;;;;;;39.47;11.83;;;;;;;2.03;82.89;99962.52;2221458;80;21366;-80
2022/10/12 06:14:38;;;;;;;24.57;12.03;;;;;;;2.16;82.83;99957.33;2221359;80;21409;-80
2022/10/12 06:17:38;;;;;;;50.03;14.17;;;;;;;2.30;82.84;99964.23;2221697;80;20955;-81
2022/10/12 06:20:39;;;;;;;24.57;12.07;;;;;;;2.50;83.05;99959.91;2220598;80;21033;-81
2022/10/12 06:23:39;;;;;;;27.83;12.67;;;;;;;2.73;83.12;99953.60;2221165;80;20967;-80
2022/10/12 06:26:40;;;;;;;28.70;13.67;;;;;;;2.85;82.93;99963.76;2221103;80;20892;-81
2022/10/12 06:29:40;;;;;;;35.47;16.93;;;;;;;3.01;82.93;99965.56;2221226;80;20994;-81
2022/10/12 06:32:40;;;;;;;33.60;17.13;;;;;;;3.23;82.92;99961.27;2220919;80;20915;-81
2022/10/12 06:35:41;;;;;;;32.67;15.00;;;;;;;3.41;82.83;99961.03;2221050;80;20938;-81
2022/10/12 06:38:41;;;;;;;29.17;13.40;;;;;;;3.58;82.93;99962.92;2221241;80;20954;-80
2022/10/12 06:41:42;;;;;;;61.53;13.73;;;;;;;3.76;82.55;99962.67;2221178;80;21065;-82
2022/10/12 06:44:43;;;;;;;164.87;21.43;;;;;;;3.86;82.36;99961.50;2222518;80;21875;-83
2022/10/12 06:47:43;;;;;;;86.53;16.37;;;;;;;3.96;82.37;99969.36;2220333;78;20954;-82
2022/10/12 06:50:44;;;;;;;25.47;12.60;;;;;;;4.10;82.38;99966.73;2220506;80;21697;-83
2022/10/12 06:53:44;;;;;;;34.57;12.13;;;;;;;4.34;82.57;99967.61;2220134;80;21373;-82
2022/10/12 06:56:45;;;;;;;24.60;12.03;;;;;;;4.56;82.79;99963.19;2220567;80;20991;-82
2022/10/12 06:59:45;;;;;;;39.07;13.27;;;;;;;4.74;82.59;99969.33;2220273;80;20955;-82
2022/10/12 07:02:46;;;;;;;20.03;11.43;;;;;;;4.94;82.75;99975.14;2219844;80;20991;-83
2022/10/12 07:05:46;;;;;;;27.67;11.97;;;;;;;5.09;82.71;99970.75;2220895;80;20982;-82
2022/10/12 07:08:49;;;;;;;21.97;13.17;;;;;;;5.25;82.59;99971.57;2220972;80;20939;-83
2022/10/12 07:11:47;;;;;;;17.87;12.20;;;;;;;5.42;82.74;99972.01;2220564;80;21358;-82
2022/10/12 07:14:47;;;;;;;47.37;14.07;;;;;;;5.61;82.51;99970.81;2220324;80;21002;-83
2022/10/12 07:17:48;;;;;;;90.27;18.77;;;;;;;5.86;82.69;99975.89;2221212;80;20975;-82
2022/10/12 07:20:48;;;;;;;32.10;17.23;;;;;;;6.19;83.17;99973.67;2221711;80;21397;-83
2022/10/12 07:23:48;;;;;;;45.37;20.30;;;;;;;6.55;84.07;99968.41;2220919;80;20973;-83
2022/10/12 07:26:49;;;;;;;42.43;20.47;;;;;;;6.94;83.70;99966.33;2220341;80;20974;-82
2022/10/12 07:29:49;;;;;;;58.50;22.43;;;;;;;7.19;82.69;99962.20;2220174;80;20970;-82
2022/10/12 07:32:50;;;;;;;66.60;24.50;;;;;;;7.41;82.09;99966.59;2219864;80;20971;-81
2022/10/12 07:35:50;;;;;;;56.37;25.47;;;;;;;7.69;82.23;99968.22;2220136;80;21023;-80
2022/10/12 07:38:50;;;;;;;52.37;27.73;;;;;;;8.07;82.22;99965.89;2220233;80;20994;-80
2022/10/12 07:41:51;;;;;;;50.30;27.97;;;;;;;8.36;81.14;99959.66;2220466;80;20958;-80
2022/10/12 07:44:51;;;;;;;196.27;33.47;;;;;;;8.53;80.52;99958.59;2220046;80;20998;-81
2022/10/12 07:47:52;;;;;;;57.23;29.07;;;;;;;8.73;79.95;99960.24;2226635;78;21460;-82
2022/10/12 07:50:52;;;;;;;61.50;28.60;;;;;;;8.85;79.53;99958.50;2228311;80;20989;-81
2022/10/12 07:53:52;;;;;;;48.03;28.77;;;;;;;8.94;79.15;99953.22;2228499;80;21041;-81
2022/10/12 07:56:53;;;;;;;55.80;29.17;;;;;;;9.09;79.15;99951.98;2229736;80;20990;-81
2022/10/12 07:59:53;;;;;;;47.80;28.03;;;;;;;9.16;79.07;99944.85;2229967;80;21445;-83
2022/10/12 08:02:54;;;;;;;64.93;36.50;;;;;;;9.15;78.91;99948.29;2229427;80;21008;-82
2022/10/12 08:05:54;;;;;;;58.13;30.50;;;;;;;9.15;79.02;99946.57;2228934;80;20993;-82
2022/10/12 08:08:54;;;;;;;55.07;30.17;;;;;;;9.20;78.96;99945.02;2229266;80;21444;-81
2022/10/12 08:11:55;;;;;;;52.57;29.90;;;;;;;9.35;79.01;99947.26;2229225;80;21009;-82
2022/10/12 08:14:55;;;;;;;50.27;28.23;;;;;;;9.48;78.78;99949.45;2229166;80;21068;-81
2022/10/12 08:17:58;;;;;;;52.77;28.23;;;;;;;9.56;78.47;99948.02;2228937;80;21010;-82
2022/10/12 08:20:58;;;;;;;47.80;26.00;;;;;;;9.74;78.42;99949.45;2215610;80;21024;-81
2022/10/12 08:23:58;;;;;;;49.67;25.47;;;;;;;10.01;77.61;99949.45;2228429;80;20961;-82
2022/10/12 08:26:59;;;;;;;42.00;24.23;;;;;;;10.21;77.52;99947.08;2228254;80;21516;-81
2022/10/12 08:29:59;;;;;;;39.93;23.70;;;;;;;10.37;76.78;99946.70;2228366;80;21040;-81
2022/10/12 08:33:00;;;;;;;43.73;25.02;;;;;;;10.55;76.31;99945.09;2228542;80;21017;-80
2022/10/12 08:36:01;;;;;;;48.50;25.77;;;;;;;10.68;75.94;99943.30;2228264;80;20934;-79
2022/10/12 08:39:01;;;;;;;43.15;24.92;;;;;;;10.75;75.34;99942.63;2229560;79;20989;-79
2022/10/12 08:42:01;;;;;;;47.70;23.83;;;;;;;11.12;75.24;99951.48;2231263;80;20986;-80
2022/10/12 08:45:01;;;;;;;46.88;25.15;;;;;;;11.34;74.55;99947.33;2229315;80;21052;-82
2022/10/12 08:48:02;;;;;;;40.88;24.98;;;;;;;11.57;74.38;99943.11;2237481;78;20990;-83
2022/10/12 08:51:02;;;;;;;76.53;26.93;;;;;;;11.74;73.37;99943.98;2239755;79;21362;-80
2022/10/12 08:54:02;;;;;;;39.13;23.10;;;;;;;11.79;72.28;99943.71;2238839;79;20953;-82
2022/10/12 08:57:03;;;;;;;44.85;24.72;;;;;;;11.82;71.41;99940.28;2239335;79;21005;-82
2022/10/12 09:00:03;;;;;;;40.90;25.37;;;;;;;11.88;71.12;99939.13;2239863;79;20966;-83
2022/10/12 09:03:04;;;;;;;42.62;23.67;;;;;;;12.01;70.79;99949.03;2239323;79;21328;-83
2022/10/12 09:06:04;;;;;;;35.25;19.98;;;;;;;12.08;70.77;99942.21;2239958;79;20977;-81
2022/10/12 09:09:04;;;;;;;34.13;19.50;;;;;;;12.21;70.64;99936.86;2238942;79;20927;-82
2022/10/12 09:12:05;;;;;;;33.45;18.10;;;;;;;12.33;70.62;99938.45;2238526;79;21001;-81
2022/10/12 09:15:05;;;;;;;29.02;16.65;;;;;;;12.48;69.68;99947.95;2239858;79;20998;-82
2022/10/12 09:21:10;;;;;;;37.13;15.35;;;;;;;12.68;69.18;99943.13;2241807;79;20966;-80
2022/10/12 09:24:08;;;;;;;27.48;10.30;;;;;;;12.80;68.68;99937.26;2242923;79;20990;-81
2022/10/12 09:27:09;;;;;;;23.30;12.20;;;;;;;12.90;66.79;99937.89;2243300;79;20970;-80
2022/10/12 09:30:09;;;;;;;26.90;13.62;;;;;;;13.02;67.67;99939.48;2242705;79;20993;-81
2022/10/12 09:33:10;;;;;;;22.60;13.05;;;;;;;13.15;66.98;99940.17;2242796;79;20970;-81
2022/10/12 09:36:10;;;;;;;14.70;9.05;;;;;;;13.29;66.40;99937.41;2242351;79;21630;-82
2022/10/12 09:39:10;;;;;;;26.62;10.00;;;;;;;13.26;65.37;99941.28;2242141;79;20967;-83
2022/10/12 09:42:11;;;;;;;14.95;7.05;;;;;;;13.38;66.11;99944.12;2242382;79;21255;-81
2022/10/12 09:45:11;;;;;;;16.95;7.53;;;;;;;13.58;65.43;99940.97;2243232;79;21070;-83
2022/10/12 09:48:12;;;;;;;16.42;7.50;;;;;;;13.67;64.81;99930.20;2235069;79;21053;-83
2022/10/12 09:51:15;;;;;;;17.80;8.23;;;;;;;13.77;63.72;99936.91;2232084;80;20931;-83
2022/10/12 09:54:13;;;;;;;15.38;8.30;;;;;;;13.83;63.70;99939.64;2231896;80;21006;-81
2022/10/12 09:57:13;;;;;;;16.20;7.37;;;;;;;14.00;62.69;99938.20;2231561;80;21268;-81
2022/10/12 10:00:13;;;;;;;18.60;7.87;;;;;;;14.05;62.81;99935.64;2231176;80;20971;-81
2022/10/12 10:03:14;;;;;;;18.73;6.80;;;;;;;14.09;62.16;99929.58;2231358;80;20991;-82
2022/10/12 10:06:14;;;;;;;16.05;7.00;;;;;;;14.07;61.74;99931.30;2231237;80;20990;-80
2022/10/12 10:09:15;;;;;;;17.15;6.20;;;;;;;14.13;62.20;99925.70;2231460;80;20995;-81
2022/10/12 10:12:15;;;;;;;12.07;5.00;;;;;;;14.22;61.59;99929.77;2230910;80;20963;-81
2022/10/12 10:15:16;;;;;;;14.03;6.30;;;;;;;14.28;59.71;99929.86;2231272;80;21033;-81
2022/10/12 10:18:16;;;;;;;11.95;5.50;;;;;;;14.41;60.23;99927.41;2231728;80;21018;-81
2022/10/12 10:21:16;;;;;;;18.82;5.08;;;;;;;14.58;59.00;99927.23;2231728;80;21100;-82
2022/10/12 10:24:17;;;;;;;13.80;5.90;;;;;;;14.68;58.76;99925.60;2231197;80;21482;-80
2022/10/12 10:27:17;;;;;;;14.40;5.10;;;;;;;14.84;58.13;99924.52;2231510;80;20937;-82
2022/10/12 10:30:18;;;;;;;11.18;4.55;;;;;;;14.86;56.78;99928.05;2231708;80;20963;-82
2022/10/12 10:33:18;;;;;;;11.55;4.95;;;;;;;14.66;57.84;99927.78;2231624;80;21374;-83
2022/10/12 10:36:19;;;;;;;11.93;4.45;;;;;;;14.61;58.39;99931.21;2232565;80;21006;-82
2022/10/12 10:39:19;;;;;;;10.53;4.35;;;;;;;14.60;57.67;99929.45;2232753;80;20982;-83
2022/10/12 10:42:19;;;;;;;10.58;4.17;;;;;;;14.57;58.16;99927.66;2231916;80;21441;-83
2022/10/12 10:45:20;;;;;;;88.85;10.65;;;;;;;14.61;58.14;99920.27;2231706;80;21030;-82
2022/10/12 10:48:20;;;;;;;29.70;4.85;;;;;;;14.66;57.91;99926.89;2239663;79;21023;-84
2022/10/12 10:51:21;;;;;;;34.40;5.60;;;;;;;14.72;57.55;99915.58;2246123;78;21046;-83
2022/10/12 10:54:21;;;;;;;12.80;4.90;;;;;;;14.80;57.29;99911.33;2243637;79;20996;-81
2022/10/12 10:57:21;;;;;;;10.23;4.35;;;;;;;14.79;57.15;99914.82;2244380;79;21000;-82
2022/10/12 11:00:22;;;;;;;7.28;3.80;;;;;;;14.80;56.55;99911.33;2243620;79;20984;-81
2022/10/12 11:03:22;;;;;;;9.75;4.28;;;;;;;15.03;55.81;99916.84;2242678;79;21011;-82
2022/10/12 11:06:23;;;;;;;10.70;3.75;;;;;;;15.35;54.96;99910.59;2242149;79;20964;-82
2022/10/12 11:09:24;;;;;;;18.07;4.10;;;;;;;15.45;52.65;99908.50;2241764;79;21008;-82
2022/10/12 11:12:23;;;;;;;10.50;3.95;;;;;;;15.41;51.40;99904.08;2241965;79;21015;-80
2022/10/12 11:15:24;;;;;;;14.87;4.72;;;;;;;15.42;52.53;99907.16;2241456;79;21341;-81
2022/10/12 11:18:24;;;;;;;8.83;3.92;;;;;;;15.50;52.93;99897.14;2241529;79;20996;-80
2022/10/12 11:21:25;;;;;;;10.63;4.00;;;;;;;15.63;51.47;99899.95;2241316;79;20999;-80
2022/10/12 11:24:27;;;;;;;12.30;4.00;;;;;;;15.70;51.12;99890.80;2108485;84;20999;-82
2022/10/12 11:27:27;;;;;;;17.82;4.37;;;;;;;15.53;51.92;99896.30;2109742;84;20983;-74
2022/10/12 11:30:28;;;;;;;9.83;3.83;;;;;;;15.44;50.53;99892.27;2108788;84;21039;-80
2022/10/12 11:33:28;;;;;;;8.88;3.40;;;;;;;15.40;50.84;99891.80;2107001;84;21046;-82
2022/10/12 11:36:29;;;;;;;9.55;4.90;;;;;;;15.42;51.20;99893.56;2109862;84;21474;-78
2022/10/12 11:39:31;;;;;;;13.65;3.70;;;;;;;15.56;51.90;99895.00;2082856;84;21023;-81
2022/10/12 11:42:32;;;;;;;27.60;4.80;;;;;;;15.56;50.95;99887.11;2109409;84;21010;-83
2022/10/12 11:45:32;;;;;;;12.78;3.87;;;;;;;15.57;51.50;99880.98;2108731;84;21020;-82
2022/10/12 11:48:34;;;;;;;10.40;4.17;;;;;;;15.55;50.96;99890.61;2101962;84;21028;-82
2022/10/12 11:51:34;;;;;;;14.60;7.50;;;;;;;15.63;50.72;99892.05;2098698;85;21023;-81
2022/10/12 11:54:35;;;;;;;35.98;5.42;;;;;;;15.76;51.42;99889.97;2098258;85;21071;-81
2022/10/12 11:57:35;;;;;;;27.10;13.80;;;;;;;15.84;50.83;99881.69;2098936;85;21427;-80
2022/10/12 12:00:35;;;;;;;12.23;6.25;;;;;;;15.91;50.67;99880.86;2098488;85;21516;-81
2022/10/12 12:03:36;;;;;;;12.85;6.05;;;;;;;15.93;50.36;99880.00;2099318;85;21015;-82
2022/10/12 12:06:36;;;;;;;10.78;3.98;;;;;;;15.79;48.44;99880.34;2099063;85;21003;-81
2022/10/12 12:09:38;;;;;;;9.08;3.70;;;;;;;15.68;49.16;99880.69;2099251;85;21050;-81
2022/10/12 12:12:37;;;;;;;24.82;4.60;;;;;;;15.58;49.94;99886.72;2099513;85;20968;-79
2022/10/12 12:15:37;;;;;;;9.70;3.83;;;;;;;15.60;50.25;99877.09;2099368;85;21919;-82
2022/10/12 12:18:38;;;;;;;9.83;4.20;;;;;;;15.67;50.02;99878.05;2099228;85;21649;-81
2022/10/12 12:21:38;;;;;;;8.85;3.45;;;;;;;15.71;49.35;99874.14;2099077;85;21020;-81
2022/10/12 12:24:39;;;;;;;10.08;4.15;;;;;;;15.69;49.08;99867.98;2099232;85;21379;-80
2022/10/12 12:27:39;;;;;;;10.88;3.80;;;;;;;15.64;48.48;99860.92;2173171;80;20958;-81
2022/10/12 12:30:40;;;;;;;16.45;4.42;;;;;;;15.61;48.83;99867.04;2230693;80;21018;-80
2022/10/12 12:33:41;;;;;;;10.40;3.60;;;;;;;15.61;49.34;99868.36;2231128;80;20983;-80
2022/10/12 12:36:43;;;;;;;8.95;3.80;;;;;;;15.77;49.34;99866.28;2231384;80;20979;-82
2022/10/12 12:39:41;;;;;;;14.53;4.37;;;;;;;15.89;49.16;99865.05;2231323;80;21391;-81
2022/10/12 12:42:41;;;;;;;9.75;4.30;;;;;;;16.03;48.81;99860.30;2231548;80;21057;-81
2022/10/12 12:45:42;;;;;;;13.32;4.30;;;;;;;16.15;49.18;99863.89;2231409;80;21034;-81
2022/10/12 12:48:42;;;;;;;9.10;4.35;;;;;;;16.30;48.29;99857.82;2231120;79;20987;-82
2022/10/12 12:51:43;;;;;;;9.80;4.50;;;;;;;16.43;47.89;99852.17;2231738;80;20967;-84
2022/10/12 12:54:43;;;;;;;16.77;7.35;;;;;;;16.54;48.43;99860.59;2232303;80;21000;-84
2022/10/12 12:57:43;;;;;;;15.13;7.22;;;;;;;16.59;47.09;99855.78;2232195;80;21429;-81
2022/10/12 13:00:44;;;;;;;28.38;14.15;;;;;;;16.33;44.98;99851.25;2231601;80;21071;-83
2022/10/12 13:03:44;;;;;;;24.95;11.73;;;;;;;15.90;47.40;99852.33;2231094;80;21018;-83
2022/10/12 13:06:45;;;;;;;22.58;13.75;;;;;;;15.67;48.02;99859.62;2230957;80;21378;-82
2022/10/12 13:09:45;;;;;;;29.75;18.82;;;;;;;15.43;48.66;99856.30;2230985;80;20923;-83
2022/10/12 13:12:46;;;;;;;10.60;5.78;;;;;;;15.19;49.22;99850.39;2230681;80;20939;-83
2022/10/12 13:15:46;;;;;;;9.30;3.40;;;;;;;14.97;49.95;99851.94;2231179;80;21046;-83
2022/10/12 13:18:46;;;;;;;9.80;2.52;;;;;;;14.76;50.22;99856.97;2231034;80;20959;-83
2022/10/12 13:21:47;;;;;;;9.68;3.15;;;;;;;14.61;50.73;99860.27;2230591;80;21485;-83
2022/10/12 13:24:49;;;;;;;7.95;2.90;;;;;;;14.45;51.25;99853.95;2230828;80;20900;-83
2022/10/12 13:27:48;;;;;;;11.78;3.90;;;;;;;14.35;51.97;99859.91;2230750;80;20974;-83
2022/10/12 13:30:48;;;;;;;11.73;4.15;;;;;;;14.22;52.14;99852.73;2231081;80;20991;-84
2022/10/12 13:33:50;;;;;;;297.82;27.73;;;;;;;14.09;53.45;99854.32;2231289;80;20998;-82
2022/10/12 13:36:49;;;;;;;39.18;7.00;;;;;;;13.94;55.41;99857.61;2232572;80;21006;-82
2022/10/12 13:39:53;;;;;;;281.35;22.32;;;;;;;13.78;55.63;99852.97;2232697;80;20967;-76
2022/10/12 13:42:50;;;;;;;218.63;22.05;;;;;;;13.66;57.57;99844.91;2231782;80;20986;-81
2022/10/12 13:45:50;;;;;;;36.23;14.38;;;;;;;13.52;58.47;99839.88;2233193;80;21436;-83
2022/10/12 13:48:50;;;;;;;45.90;17.65;;;;;;;13.36;58.89;99844.88;2232601;80;21058;-85
2022/10/12 13:51:51;;;;;;;40.00;20.70;;;;;;;13.26;59.30;99841.65;2233114;80;21010;-82
2022/10/12 13:54:51;;;;;;;105.20;21.90;;;;;;;13.28;59.62;99837.74;2234009;80;21441;-83
2022/10/12 13:57:52;;;;;;;82.82;16.23;;;;;;;13.39;60.03;99833.13;2234370;80;20935;-82
2022/10/12 14:00:52;;;;;;;48.50;8.10;;;;;;;13.56;60.00;99836.02;2234151;80;21135;-82